Time;durP1;ratioP1;P1;durP2;ratioP2;P2;SDS_P1;SDS_P2;PMS_P1;PMS_P2;Temp;Humidity;BMP_temperature;BMP_pressure;BME280_temperature;BME280_humidity;BME280_pressure;Samples;Min_cycle;Max_cycle;Signal;HPM_P1;HPM_P2
2022/04/02 00:01:31;;;;;;;4.40;1.70;;;;;;;;;;5062433;28;20043;-61
2022/04/02 00:03:57;;;;;;;3.53;1.80;;;;;;;;;;5064284;28;20514;-61
2022/04/02 00:06:24;;;;;;;5.60;1.80;;;;;;;;;;5068448;28;20041;-60
2022/04/02 00:08:50;;;;;;;4.72;1.77;;;;;;;;;;5069293;28;20055;-61
2022/04/02 00:11:16;;;;;;;5.82;1.75;;;;;;;;;;5070872;28;20040;-62
2022/04/02 00:13:42;;;;;;;3.10;1.65;;;;;;;;;;5067539;28;20040;-62
2022/04/02 00:16:08;;;;;;;2.35;1.80;;;;;;;;;;5072513;28;20047;-61
2022/04/02 00:18:34;;;;;;;3.08;2.00;;;;;;;;;;5068277;28;20128;-61
2022/04/02 00:21:00;;;;;;;4.00;2.08;;;;;;;;;;5070732;28;20024;-61
2022/04/02 00:23:43;;;;;;;3.60;1.85;;;;;;;;;;5066944;28;20448;-62
2022/04/02 00:26:10;;;;;;;3.65;2.00;;;;;;;;;;5069965;28;20067;-61
2022/04/02 00:28:37;;;;;;;5.78;2.03;;;;;;;;;;5071650;28;20072;-61
2022/04/02 00:31:09;;;;;;;3.00;2.10;;;;;;;;;;5070455;28;20037;-61
2022/04/02 00:33:35;;;;;;;;;;;;;;;;;;5068969;28;20044;-61
2022/04/02 00:36:01;;;;;;;4.22;2.00;;;;;;;;;;5068350;28;20260;-61
2022/04/02 00:38:28;;;;;;;3.13;2.10;;;;;;;;;;5070989;28;20040;-61
2022/04/02 00:40:54;;;;;;;4.10;2.00;;;;;;;;;;5069957;28;20048;-61
2022/04/02 00:43:24;;;;;;;4.53;2.20;;;;;;;;;;5071097;28;20411;-61
2022/04/02 00:45:51;;;;;;;6.10;2.10;;;;;;;;;;5066153;28;20040;-61
2022/04/02 00:48:18;;;;;;;3.03;2.15;;;;;;;;;;5068711;28;20037;-62
2022/04/02 00:50:45;;;;;;;5.05;1.90;;;;;;;;;;5067815;28;20032;-61
2022/04/02 00:53:11;;;;;;;3.47;1.95;;;;;;;;;;5070242;28;20041;-61
2022/04/02 00:55:37;;;;;;;4.75;1.92;;;;;;;;;;5068141;28;20581;-61
2022/04/02 00:58:07;;;;;;;2.67;1.75;;;;;;;;;;5062927;28;20116;-61
2022/04/02 01:00:34;;;;;;;4.88;2.17;;;;;;;;;;5067288;28;20040;-62
2022/04/02 01:03:00;;;;;;;3.03;2.10;;;;;;;;;;5071263;28;20454;-61
2022/04/02 01:05:26;;;;;;;3.95;1.92;;;;;;;;;;5068507;28;20474;-62
2022/04/02 01:07:53;;;;;;;4.38;2.40;;;;;;;;;;5072247;28;20037;-62
2022/04/02 01:10:19;;;;;;;4.22;1.90;;;;;;;;;;5062704;28;20511;-61
2022/04/02 01:12:45;;;;;;;5.15;2.13;;;;;;;;;;5066809;28;20033;-61
2022/04/02 01:15:12;;;;;;;4.97;2.28;;;;;;;;;;5068466;28;20500;-61
2022/04/02 01:17:40;;;;;;;3.35;1.90;;;;;;;;;;5067889;28;20036;-61
2022/04/02 01:20:09;;;;;;;4.65;1.80;;;;;;;;;;5067911;28;20059;-62
2022/04/02 01:22:35;;;;;;;3.00;2.10;;;;;;;;;;5070255;28;20037;-61
2022/04/02 01:25:01;;;;;;;4.03;2.25;;;;;;;;;;5067585;28;20143;-61
2022/04/02 01:27:27;;;;;;;2.72;1.90;;;;;;;;;;5065776;28;20098;-61
2022/04/02 01:29:53;;;;;;;2.28;2.00;;;;;;;;;;5067212;28;20064;-62
2022/04/02 01:32:21;;;;;;;3.38;2.05;;;;;;;;;;5069459;28;20043;-62
2022/04/02 01:34:47;;;;;;;5.22;2.45;;;;;;;;;;5067920;28;20036;-61
2022/04/02 01:37:19;;;;;;;5.28;2.10;;;;;;;;;;5065117;28;20036;-61
2022/04/02 01:39:45;;;;;;;3.30;2.00;;;;;;;;;;5071370;28;20493;-61
2022/04/02 01:42:13;;;;;;;6.07;2.30;;;;;;;;;;5067790;28;20120;-61
2022/04/02 01:44:39;;;;;;;4.53;2.03;;;;;;;;;;5070133;28;20458;-62
2022/04/02 01:47:05;;;;;;;5.53;2.45;;;;;;;;;;5065926;28;20041;-62
2022/04/02 01:49:31;;;;;;;6.25;2.28;;;;;;;;;;5062079;28;20497;-61
2022/04/02 01:51:57;;;;;;;4.28;2.00;;;;;;;;;;5064662;28;20028;-62
2022/04/02 01:54:23;;;;;;;4.40;2.20;;;;;;;;;;5066427;28;20127;-62
2022/04/02 01:56:49;;;;;;;3.35;1.80;;;;;;;;;;5063176;28;20124;-61
2022/04/02 01:59:15;;;;;;;3.10;2.03;;;;;;;;;;5063929;28;20048;-61
2022/04/02 02:01:42;;;;;;;4.97;1.88;;;;;;;;;;5063249;28;20037;-62
2022/04/02 02:04:08;;;;;;;2.47;1.85;;;;;;;;;;5067654;28;20475;-62
2022/04/02 02:06:38;;;;;;;4.30;2.10;;;;;;;;;;5067636;28;20490;-61
2022/04/02 02:09:05;;;;;;;4.82;2.10;;;;;;;;;;5065713;28;20445;-61
2022/04/02 02:11:31;;;;;;;2.88;2.08;;;;;;;;;;5067334;28;20402;-61
2022/04/02 02:13:58;;;;;;;3.70;2.17;;;;;;;;;;5066094;28;20089;-61
2022/04/02 02:16:24;;;;;;;5.97;2.10;;;;;;;;;;5065732;28;20068;-61
2022/04/02 02:18:50;;;;;;;5.75;2.00;;;;;;;;;;5068703;28;20037;-61
2022/04/02 02:21:17;;;;;;;7.00;1.90;;;;;;;;;;5062467;28;20132;-60
2022/04/02 02:23:43;;;;;;;3.40;2.17;;;;;;;;;;5066450;28;20035;-61
2022/04/02 02:26:09;;;;;;;4.47;2.28;;;;;;;;;;5068931;28;20435;-62
2022/04/02 02:28:35;;;;;;;5.40;2.28;;;;;;;;;;5065878;28;20127;-61
2022/04/02 02:31:01;;;;;;;4.07;2.20;;;;;;;;;;5065905;28;20036;-62
2022/04/02 02:36:12;;;;;;;7.45;2.00;;;;;;;;;;5065946;28;20135;-61
2022/04/02 02:38:38;;;;;;;4.80;2.20;;;;;;;;;;5066525;28;20072;-60
2022/04/02 02:41:04;;;;;;;3.85;2.05;;;;;;;;;;5065718;28;20051;-62
2022/04/02 02:43:30;;;;;;;3.80;1.90;;;;;;;;;;5069663;28;20032;-61
2022/04/02 02:45:56;;;;;;;3.25;1.88;;;;;;;;;;5070097;28;20082;-61
2022/04/02 02:48:22;;;;;;;4.47;2.10;;;;;;;;;;5064743;28;20047;-61
2022/04/02 02:50:48;;;;;;;4.32;2.60;;;;;;;;;;5066991;28;20091;-61
2022/04/02 02:53:14;;;;;;;3.20;2.22;;;;;;;;;;5065953;28;20090;-61
2022/04/02 02:55:41;;;;;;;4.13;2.05;;;;;;;;;;5067994;28;20506;-61
2022/04/02 02:58:08;;;;;;;4.85;2.50;;;;;;;;;;5066436;28;20119;-60
2022/04/02 03:00:34;;;;;;;3.13;1.98;;;;;;;;;;5068839;28;20070;-61
2022/04/02 03:03:00;;;;;;;3.50;2.83;;;;;;;;;;5059423;28;20434;-61
2022/04/02 03:05:26;;;;;;;3.10;1.92;;;;;;;;;;5070154;28;20038;-61
2022/04/02 03:07:52;;;;;;;3.97;2.53;;;;;;;;;;5062518;28;20110;-62
2022/04/02 03:10:23;;;;;;;5.65;2.40;;;;;;;;;;5068200;28;20048;-61
2022/04/02 03:12:52;;;;;;;5.30;2.03;;;;;;;;;;5063729;28;20052;-61
2022/04/02 03:15:19;;;;;;;4.13;2.30;;;;;;;;;;5069783;28;20037;-61
2022/04/02 03:17:45;;;;;;;3.72;1.98;;;;;;;;;;5065387;28;20048;-60
2022/04/02 03:20:12;;;;;;;9.05;2.53;;;;;;;;;;5069446;28;20041;-62
2022/04/02 03:22:43;;;;;;;4.22;2.15;;;;;;;;;;5057115;28;20040;-62
2022/04/02 03:25:10;;;;;;;7.57;2.08;;;;;;;;;;5067924;28;20477;-61
2022/04/02 03:27:37;;;;;;;4.18;2.08;;;;;;;;;;5066704;28;20049;-61
2022/04/02 03:30:04;;;;;;;2.97;2.00;;;;;;;;;;5069709;28;20522;-62
2022/04/02 03:32:31;;;;;;;3.13;1.80;;;;;;;;;;5067214;28;20498;-60
2022/04/02 03:34:57;;;;;;;2.65;2.03;;;;;;;;;;5064468;28;20474;-62
2022/04/02 03:37:24;;;;;;;4.07;2.40;;;;;;;;;;5069662;28;20032;-61
2022/04/02 03:39:51;;;;;;;4.38;2.28;;;;;;;;;;5068465;28;20097;-62
2022/04/02 03:42:17;;;;;;;6.63;2.13;;;;;;;;;;5071721;28;20487;-61
2022/04/02 03:44:43;;;;;;;3.13;2.00;;;;;;;;;;5068051;28;20037;-61
2022/04/02 03:47:09;;;;;;;4.05;1.80;;;;;;;;;;5070481;28;20403;-62
2022/04/02 03:49:36;;;;;;;4.70;2.28;;;;;;;;;;5070430;28;20471;-61
2022/04/02 03:52:02;;;;;;;4.18;2.03;;;;;;;;;;5068509;28;20048;-61
2022/04/02 03:54:28;;;;;;;2.45;1.83;;;;;;;;;;5070913;28;20127;-61
2022/04/02 03:56:54;;;;;;;4.13;2.45;;;;;;;;;;5072358;28;20181;-61
2022/04/02 03:59:20;;;;;;;3.53;1.85;;;;;;;;;;5065532;28;20066;-61
2022/04/02 04:01:46;;;;;;;3.28;1.70;;;;;;;;;;5068664;28;20068;-61
2022/04/02 04:04:13;;;;;;;4.53;2.10;;;;;;;;;;5065526;28;20079;-62
2022/04/02 04:06:39;;;;;;;3.38;2.10;;;;;;;;;;5069723;28;20490;-61
2022/04/02 04:09:05;;;;;;;3.40;1.92;;;;;;;;;;5072999;28;20044;-61
2022/04/02 04:11:32;;;;;;;2.90;2.00;;;;;;;;;;5072160;28;20387;-60
2022/04/02 04:13:58;;;;;;;3.20;2.08;;;;;;;;;;5069202;28;20048;-61
2022/04/02 04:16:24;;;;;;;4.22;1.80;;;;;;;;;;5072961;28;20491;-61
2022/04/02 04:18:50;;;;;;;3.70;2.10;;;;;;;;;;5066762;28;20048;-62
2022/04/02 04:21:16;;;;;;;5.57;2.53;;;;;;;;;;5071121;28;20491;-61
2022/04/02 04:23:45;;;;;;;3.53;2.10;;;;;;;;;;5066658;28;20050;-61
2022/04/02 04:26:12;;;;;;;5.47;2.22;;;;;;;;;;5071267;28;20039;-61
2022/04/02 04:28:38;;;;;;;4.05;2.00;;;;;;;;;;5070832;28;21172;-61
2022/04/02 04:31:05;;;;;;;4.53;2.30;;;;;;;;;;5071431;28;20036;-60
2022/04/02 04:33:32;;;;;;;6.28;1.90;;;;;;;;;;5069246;28;20127;-61
2022/04/02 04:35:58;;;;;;;7.65;2.00;;;;;;;;;;5070760;28;20045;-61
2022/04/02 04:38:24;;;;;;;6.00;2.30;;;;;;;;;;5070428;28;20036;-61
2022/04/02 04:40:50;;;;;;;4.20;2.20;;;;;;;;;;5068213;28;20060;-61
2022/04/02 04:43:16;;;;;;;4.15;2.00;;;;;;;;;;5071954;28;20577;-61
2022/04/02 04:45:42;;;;;;;4.05;1.85;;;;;;;;;;5066399;28;20071;-61
2022/04/02 04:48:08;;;;;;;6.13;2.25;;;;;;;;;;5069110;28;20043;-61
2022/04/02 04:50:35;;;;;;;3.63;2.10;;;;;;;;;;5067511;28;20090;-62
2022/04/02 04:53:02;;;;;;;5.38;2.10;;;;;;;;;;5062187;28;20047;-62
2022/04/02 04:55:28;;;;;;;4.25;2.30;;;;;;;;;;5068066;28;20041;-62
2022/04/02 04:57:54;;;;;;;4.00;1.92;;;;;;;;;;5070747;28;20385;-61
2022/04/02 05:00:20;;;;;;;4.10;2.00;;;;;;;;;;5070985;28;20067;-61
2022/04/02 05:02:47;;;;;;;4.18;2.00;;;;;;;;;;5064380;28;20491;-61
2022/04/02 05:05:13;;;;;;;2.80;1.88;;;;;;;;;;5064193;28;20036;-62
2022/04/02 05:07:40;;;;;;;3.67;1.80;;;;;;;;;;5061722;28;20072;-62
2022/04/02 05:10:07;;;;;;;5.50;2.65;;;;;;;;;;5059589;28;20055;-61
2022/04/02 05:12:33;;;;;;;4.18;2.03;;;;;;;;;;5063955;28;20406;-61
2022/04/02 05:15:00;;;;;;;4.75;2.08;;;;;;;;;;5061556;28;20040;-61
2022/04/02 05:17:26;;;;;;;5.10;1.80;;;;;;;;;;5064144;28;20067;-61
2022/04/02 05:19:52;;;;;;;4.68;1.88;;;;;;;;;;5068139;28;20151;-62
2022/04/02 05:22:19;;;;;;;4.47;2.15;;;;;;;;;;5067197;28;20037;-61
2022/04/02 05:24:45;;;;;;;3.85;2.00;;;;;;;;;;5066538;28;20044;-62
2022/04/02 05:27:11;;;;;;;6.70;2.78;;;;;;;;;;5066075;28;20089;-61
2022/04/02 05:29:37;;;;;;;4.18;1.95;;;;;;;;;;5066296;28;20045;-61
2022/04/02 05:32:03;;;;;;;6.55;2.25;;;;;;;;;;5068943;28;20037;-61
2022/04/02 05:34:30;;;;;;;4.30;2.10;;;;;;;;;;5069975;28;20741;-61
2022/04/02 05:36:57;;;;;;;4.07;2.05;;;;;;;;;;5071251;28;20502;-62
2022/04/02 05:39:23;;;;;;;4.72;2.10;;;;;;;;;;5067637;28;20060;-61
2022/04/02 05:41:49;;;;;;;3.20;2.05;;;;;;;;;;5059653;28;20079;-61
2022/04/02 05:44:15;;;;;;;5.40;2.47;;;;;;;;;;5058906;28;20048;-61
2022/04/02 05:46:41;;;;;;;4.97;2.28;;;;;;;;;;5055416;28;20233;-62
2022/04/02 05:49:07;;;;;;;3.38;2.10;;;;;;;;;;5061482;28;20075;-61
2022/04/02 05:51:33;;;;;;;3.95;2.00;;;;;;;;;;5056375;28;20071;-61
2022/04/02 05:53:59;;;;;;;3.55;2.00;;;;;;;;;;5056339;28;20498;-62
2022/04/02 05:56:26;;;;;;;3.25;1.80;;;;;;;;;;5065051;28;20085;-62
2022/04/02 05:58:53;;;;;;;4.07;2.15;;;;;;;;;;5069438;28;20036;-62
2022/04/02 06:01:19;;;;;;;3.50;1.85;;;;;;;;;;5064926;28;20036;-62
2022/04/02 06:03:47;;;;;;;3.60;1.95;;;;;;;;;;5069235;28;20199;-61
2022/04/02 06:06:13;;;;;;;5.47;2.00;;;;;;;;;;5062620;28;20040;-61
2022/04/02 06:08:39;;;;;;;5.47;1.90;;;;;;;;;;5070980;28;20040;-62
2022/04/02 06:11:08;;;;;;;5.75;1.80;;;;;;;;;;5062957;28;20059;-61
2022/04/02 06:13:34;;;;;;;5.88;2.47;;;;;;;;;;5068647;28;20075;-61
2022/04/02 06:16:00;;;;;;;4.30;2.05;;;;;;;;;;5064327;28;20072;-60
2022/04/02 06:18:27;;;;;;;3.58;1.92;;;;;;;;;;5070506;28;20044;-61
2022/04/02 06:20:53;;;;;;;6.35;2.28;;;;;;;;;;5067099;28;20048;-61
2022/04/02 06:23:19;;;;;;;4.55;2.17;;;;;;;;;;5067202;28;20035;-61
2022/04/02 06:25:45;;;;;;;6.43;1.98;;;;;;;;;;5064164;28;20040;-61
2022/04/02 06:28:11;;;;;;;5.97;2.00;;;;;;;;;;5070721;28;20074;-61
2022/04/02 06:30:37;;;;;;;6.20;2.05;;;;;;;;;;5068240;28;20036;-61
2022/04/02 06:33:04;;;;;;;4.28;2.45;;;;;;;;;;5067197;28;20052;-61
2022/04/02 06:35:30;;;;;;;4.25;2.30;;;;;;;;;;5059905;28;20177;-61
2022/04/02 06:37:56;;;;;;;5.63;2.33;;;;;;;;;;5068654;28;20449;-62
2022/04/02 06:40:24;;;;;;;5.68;2.00;;;;;;;;;;5063276;28;20127;-61
2022/04/02 06:42:51;;;;;;;3.95;2.08;;;;;;;;;;5065467;28;20052;-61
2022/04/02 06:45:18;;;;;;;5.32;2.67;;;;;;;;;;5069782;28;20099;-61
2022/04/02 06:47:44;;;;;;;5.65;2.17;;;;;;;;;;5067812;28;20094;-61
2022/04/02 06:50:12;;;;;;;4.20;1.98;;;;;;;;;;5067774;28;20075;-61
2022/04/02 06:52:39;;;;;;;6.90;2.40;;;;;;;;;;5069343;28;20120;-61
2022/04/02 06:55:08;;;;;;;4.55;2.03;;;;;;;;;;5064449;28;20048;-61
2022/04/02 06:57:34;;;;;;;5.55;2.22;;;;;;;;;;5064622;28;20151;-62
2022/04/02 07:00:00;;;;;;;6.15;1.95;;;;;;;;;;5067260;28;20143;-63
2022/04/02 07:02:26;;;;;;;6.15;2.33;;;;;;;;;;5067506;28;20131;-62
2022/04/02 07:04:52;;;;;;;5.60;2.30;;;;;;;;;;5067070;28;20044;-61
2022/04/02 07:07:19;;;;;;;3.13;2.05;;;;;;;;;;5067382;28;20036;-61
2022/04/02 07:09:45;;;;;;;4.20;1.90;;;;;;;;;;5066875;28;20071;-61
2022/04/02 07:12:12;;;;;;;4.22;2.22;;;;;;;;;;5068867;28;20581;-62
2022/04/02 07:14:38;;;;;;;4.88;2.50;;;;;;;;;;5064085;28;20056;-61
2022/04/02 07:17:05;;;;;;;4.00;2.00;;;;;;;;;;5067086;28;20033;-62
2022/04/02 07:19:34;;;;;;;4.75;2.13;;;;;;;;;;5068110;28;20380;-62
2022/04/02 07:22:00;;;;;;;6.22;2.10;;;;;;;;;;5067795;28;20079;-61
2022/04/02 07:24:26;;;;;;;4.75;2.28;;;;;;;;;;5068675;28;20052;-62
2022/04/02 07:26:54;;;;;;;4.35;2.00;;;;;;;;;;5065079;28;20466;-61
2022/04/02 07:29:20;;;;;;;7.65;2.10;;;;;;;;;;5070284;28;20422;-62
2022/04/02 07:31:46;;;;;;;5.45;2.75;;;;;;;;;;5063982;28;20613;-62
2022/04/02 07:34:13;;;;;;;4.63;2.50;;;;;;;;;;5065080;28;20188;-62
2022/04/02 07:36:39;;;;;;;4.57;2.20;;;;;;;;;;5063166;28;20491;-61
2022/04/02 07:39:11;;;;;;;4.65;2.20;;;;;;;;;;5070390;28;20131;-62
2022/04/02 07:41:46;;;;;;;4.50;2.30;;;;;;;;;;5066073;28;20152;-62
2022/04/02 07:44:21;;;;;;;5.80;2.25;;;;;;;;;;5068971;28;20035;-62
2022/04/02 07:46:48;;;;;;;10.07;2.78;;;;;;;;;;5065542;28;20083;-61
2022/04/02 07:49:18;;;;;;;5.05;2.30;;;;;;;;;;5068982;28;20086;-62
2022/04/02 07:51:45;;;;;;;4.00;2.38;;;;;;;;;;5060956;28;20047;-61
2022/04/02 07:54:13;;;;;;;3.80;1.90;;;;;;;;;;5057907;28;20044;-62
2022/04/02 07:56:43;;;;;;;4.30;2.50;;;;;;;;;;5053676;28;20048;-61
2022/04/02 07:59:15;;;;;;;3.00;1.77;;;;;;;;;;5063530;28;20130;-62
2022/04/02 08:01:42;;;;;;;5.30;2.10;;;;;;;;;;5064156;28;20032;-62
2022/04/02 08:04:11;;;;;;;3.22;2.20;;;;;;;;;;5063528;28;20094;-61
2022/04/02 08:06:37;;;;;;;4.63;1.90;;;;;;;;;;5067081;28;20098;-62
2022/04/02 08:09:03;;;;;;;3.22;2.10;;;;;;;;;;5067950;28;20096;-61
2022/04/02 08:11:30;;;;;;;4.90;1.80;;;;;;;;;;5067415;28;20045;-62
2022/04/02 08:13:57;;;;;;;5.00;1.90;;;;;;;;;;5062516;28;20351;-62
2022/04/02 08:16:23;;;;;;;4.93;1.90;;;;;;;;;;5069316;28;20033;-61
2022/04/02 08:18:49;;;;;;;3.83;2.05;;;;;;;;;;5067839;28;20041;-62
2022/04/02 08:21:15;;;;;;;5.13;2.30;;;;;;;;;;5068766;28;20040;-62
2022/04/02 08:23:41;;;;;;;5.05;2.10;;;;;;;;;;5066262;28;20044;-62
2022/04/02 08:26:23;;;;;;;4.38;2.42;;;;;;;;;;5068238;28;20028;-61
2022/04/02 08:28:58;;;;;;;5.07;1.70;;;;;;;;;;5071125;28;20033;-62
2022/04/02 08:31:24;;;;;;;3.50;1.70;;;;;;;;;;5071046;28;20056;-61
2022/04/02 08:33:56;;;;;;;5.07;1.70;;;;;;;;;;5065848;28;20116;-61
2022/04/02 08:36:35;;;;;;;3.08;1.83;;;;;;;;;;5071463;28;20085;-61
2022/04/02 08:39:04;;;;;;;3.17;1.83;;;;;;;;;;5070096;28;20089;-61
2022/04/02 08:41:49;;;;;;;3.88;1.77;;;;;;;;;;5072629;28;20494;-61
2022/04/02 08:44:48;;;;;;;5.20;2.20;;;5.60;99.90;;;;;;5066391;28;20036;-61
2022/04/02 08:47:26;;;;;;;5.10;1.90;;;;;;;;;;5071958;28;20032;-61
2022/04/02 08:50:08;;;;;;;5.82;1.80;;;;;;;;;;5066074;28;20082;-62
2022/04/02 08:52:49;;;;;;;3.17;2.13;;;;;;;;;;5060871;28;20052;-62
2022/04/02 08:55:15;;;;;;;7.10;2.28;;;;;;;;;;5066194;28;20048;-61
2022/04/02 08:57:41;;;;;;;4.70;2.50;;;;;;;;;;5068399;28;20044;-62
2022/04/02 09:00:08;;;;;;;3.35;1.60;;;;;;;;;;5071941;28;20130;-61
2022/04/02 09:02:35;;;;;;;7.90;2.75;;;;;;;;;;5070471;28;20040;-62
2022/04/02 09:05:17;;;;;;;2.35;1.50;;;;;;;;;;5068437;28;20103;-61
2022/04/02 09:07:46;;;;;;;5.00;2.20;;;;;;;;;;5071203;28;20119;-60
2022/04/02 09:10:28;;;;;;;4.25;2.00;;;;;;;;;;5069658;28;20036;-60
2022/04/02 09:13:00;;;;;;;4.72;1.70;;;;;;;;;;5070593;28;20049;-61
2022/04/02 09:15:33;;;;;;;4.18;1.90;;;;;;;;;;5069656;28;20036;-61
2022/04/02 09:18:21;;;;;;;3.75;1.90;;;;;;;;;;5061519;28;20051;-61
2022/04/02 09:21:17;;;;;;;1.90;1.60;;;;;;;;;;5063786;28;20035;-61
2022/04/02 09:23:44;;;;;;;6.88;1.75;;;;;;;;;;5020061;28;20053;-61
2022/04/02 09:26:13;;;;;;;9.80;2.10;;;;;;;;;;5027713;28;20045;-61
2022/04/02 09:28:42;;;;;;;3.00;1.65;;;;;;;;;;5027392;28;20049;-61
2022/04/02 09:31:21;;;;;;;2.75;1.52;;;;;;;;;;5021146;28;20040;-62
2022/04/02 09:34:05;;;;;;;5.55;1.83;;;;;;;;;;5026244;28;20049;-61
2022/04/02 09:36:31;;;;;;;5.93;1.48;;;;;;;;;;5025275;28;20037;-61
2022/04/02 09:39:00;;;;;;;3.83;1.50;;;;;;;;;;5024783;28;20176;-61
2022/04/02 09:41:39;;;;;;;5.38;1.50;;;;;;;;;;5019262;28;20049;-61
2022/04/02 09:44:40;;;;;;;5.85;1.52;;;;;;;;;;5026239;28;20091;-62
2022/04/02 09:47:32;;;;;;;3.75;1.70;;;;;;;;;;4969793;28;20050;-61
2022/04/02 09:50:08;;;;;;;7.03;1.92;;;;;;;;;;4970313;28;20126;-61
2022/04/02 09:52:35;;;;;;;6.07;1.60;;;;;;;;;;4967427;28;20054;-61
2022/04/02 09:55:04;;;;;;;4.45;1.85;;;;;;;;;;4966816;28;20173;-62
2022/04/02 09:57:45;;;;;;;8.07;1.90;;;;;;;;;;4952741;28;20129;-62
2022/04/02 10:00:19;;;;;;;3.70;1.50;;;;;;;;;;4996114;28;20052;-61
2022/04/02 10:03:01;;;;;;;3.72;1.60;;;;;;;;;;5015817;28;20552;-61
2022/04/02 10:05:58;;;;;;;6.32;1.85;;;;;;;;;;5028529;28;20458;-61
2022/04/02 10:08:39;;;;;;;4.32;1.40;;;;;;;;;;5016778;28;20137;-61
2022/04/02 10:11:06;;;;;;;3.67;1.77;;;;;;;;;;5026362;28;20071;-61
2022/04/02 10:13:34;;;;;;;2.65;1.33;;;;;;;;;;5027190;28;20164;-61
2022/04/02 10:16:00;;;;;;;3.70;1.40;;;;;;;;;;5013949;28;20045;-61
2022/04/02 10:18:27;;;;;;;4.95;1.25;;;;;;;;;;5025781;28;20048;-61
2022/04/02 10:20:54;;;;;;;4.68;1.25;;;;;;;;;;5045841;28;20053;-61
2022/04/02 10:23:21;;;;;;;2.92;1.10;;;;;;;;;;5068393;28;20028;-61
2022/04/02 10:26:09;;;;;;;8.43;1.00;;;;;;;;;;5065573;28;20033;-61
2022/04/02 10:28:44;;;;;;;3.42;1.00;;;;;;;;;;5067845;28;20037;-62
2022/04/02 10:31:12;;;;;;;4.40;1.02;;;;;;;;;;5067679;28;20039;-61
2022/04/02 10:33:42;;;;;;;2.70;1.13;;;;;;;;;;5067480;28;20039;-61
2022/04/02 10:36:10;;;;;;;3.30;1.10;;;;;;;;;;5067731;28;20036;-61
2022/04/02 10:38:40;;;;;;;3.40;1.00;;;;;;;;;;5068852;28;20518;-61
2022/04/02 10:41:11;;;;;;;4.15;1.35;;;;;;;;;;5068202;28;20438;-61
2022/04/02 10:43:59;;;;;;;1.90;1.02;;;;;;;;;;5070275;28;20028;-61
2022/04/02 10:46:25;;;;;;;5.07;1.38;;;;;;;;;;5068187;28;20082;-62
2022/04/02 10:48:54;;;;;;;2.40;1.00;;;;;;;;;;5066509;28;20067;-62
2022/04/02 10:51:25;;;;;;;1.40;1.00;;;;;;;;;;5065962;28;20044;-61
2022/04/02 10:54:08;;;;;;;2.83;1.23;;;;;;;;;;5067185;28;20052;-61
2022/04/02 10:56:44;;;;;;;2.78;0.85;;;;;;;;;;5066923;28;20166;-61
2022/04/02 10:59:10;;;;;;;3.03;1.40;;;;;;;;;;5067278;28;20049;-62
2022/04/02 11:01:39;;;;;;;1.85;1.10;;;;;;;;;;5067425;28;20032;-61
2022/04/02 11:04:26;;;;;;;2.35;1.17;;;8.20;99.90;;;;;;5068557;28;20082;-62
2022/04/02 11:06:52;;;;;;;2.75;1.10;;;;;;;;;;5067665;28;20090;-61
2022/04/02 11:09:39;;;;;;;2.38;1.00;;;;;;;;;;5067759;28;20036;-62
2022/04/02 11:12:05;;;;;;;2.72;1.20;;;;;;;;;;5068105;28;20489;-61
2022/04/02 11:14:37;;;;;;;3.67;1.30;;;;;;;;;;5068861;28;20143;-62
2022/04/02 11:17:03;;;;;;;1.30;0.90;;;;;;;;;;5070107;28;20552;-61
2022/04/02 11:22:23;;;;;;;1.55;0.88;;;;;;;;;;5065555;28;20071;-61
2022/04/02 11:24:55;;;;;;;1.25;1.00;;;;;;;;;;5069303;28;20483;-62
2022/04/02 11:27:24;;;;;;;1.85;1.08;;;;;;;;;;5069174;28;20032;-62
2022/04/02 11:29:51;;;;;;;2.38;1.15;;;;;;;;;;5069320;28;20048;-61
2022/04/02 11:32:24;;;;;;;1.95;0.98;;;;;;;;;;5068952;28;20135;-61
2022/04/02 11:34:50;;;;;;;2.92;1.00;;;;;;;;;;5067713;28;20118;-62
2022/04/02 11:37:18;;;;;;;2.22;1.23;;;;;;;;;;5068945;28;20040;-61
2022/04/02 11:39:49;;;;;;;2.75;1.10;;;;;;;;;;5068886;28;20147;-61
2022/04/02 11:42:16;;;;;;;2.08;1.05;;;;;;;;;;5068364;28;20098;-62
2022/04/02 11:44:49;;;;;;;2.13;1.15;;;;;;;;;;5068796;28;20400;-61
2022/04/02 11:47:19;;;;;;;3.22;1.08;;;;;;;;;;5069784;28;20067;-62
2022/04/02 11:49:46;;;;;;;2.53;1.00;;;;;;;;;;5063879;28;20048;-61
2022/04/02 11:52:19;;;;;;;2.70;1.10;;;;;;;;;;5067207;28;20040;-61
2022/04/02 11:54:50;;;;;;;2.35;1.10;;;;;;;;;;5068579;28;20127;-62
2022/04/02 11:57:18;;;;;;;2.38;1.00;;;10.50;99.90;;;;;;5069001;28;20040;-62
2022/04/02 11:59:58;;;;;;;8.18;1.27;;;10.30;99.90;;;;;;5069154;28;20032;-62
2022/04/02 12:02:34;;;;;;;1.67;1.30;;;;;;;;;;5072348;28;20048;-61
2022/04/02 12:05:01;;;;;;;3.60;1.20;;;;;;;;;;5072400;28;20044;-62
2022/04/02 12:07:44;;;;;;;4.70;1.17;;;8.90;99.90;;;;;;5070327;28;20491;-62
2022/04/02 12:10:14;;;;;;;1.92;1.10;;;;;;;;;;5073886;28;20028;-61
2022/04/02 12:12:47;;;;;;;6.97;1.42;;;8.20;99.90;;;;;;5072281;28;20036;-61
2022/04/02 12:15:15;;;;;;;4.25;1.10;;;;;;;;;;5072448;28;20483;-62
2022/04/02 12:17:41;;;;;;;3.10;1.05;;;;;;;;;;5069403;28;20060;-62
2022/04/02 12:20:08;;;;;;;2.50;0.90;;;;;;;;;;5071084;28;20667;-62
2022/04/02 12:22:37;;;;;;;1.98;1.08;;;;;;;;;;5072831;28;20032;-62
2022/04/02 12:25:04;;;;;;;3.78;1.20;;;;;;;;;;5072966;28;20044;-62
2022/04/02 12:27:32;;;;;;;3.20;1.02;;;8.10;99.90;;;;;;5071049;28;20033;-61
2022/04/02 12:30:00;;;;;;;2.42;1.13;;;;;;;;;;5071657;28;20402;-61
2022/04/02 12:32:30;;;;;;;3.38;0.98;;;;;;;;;;5072180;28;20041;-62
2022/04/02 12:35:06;;;;;;;2.15;1.10;;;;;;;;;;5070298;28;20040;-62
2022/04/02 12:37:41;;;;;;;4.10;1.20;;;;;;;;;;5070014;28;20079;-62
2022/04/02 12:40:15;;;;;;;3.53;1.02;;;;;;;;;;5070645;28;20044;-61
2022/04/02 12:42:42;;;;;;;3.08;1.20;;;8.60;99.90;;;;;;5070444;28;20048;-62
2022/04/02 12:45:13;;;;;;;2.95;1.27;;;;;;;;;;5070432;28;20036;-62
2022/04/02 12:47:39;;;;;;;1.77;1.10;;;;;;;;;;5070129;28;20546;-62
2022/04/02 12:50:13;;;;;;;4.13;1.20;;;;;;;;;;5070107;28;20120;-61
2022/04/02 12:52:47;;;;;;;4.22;1.00;;;;;;;;;;5064993;28;20052;-61
2022/04/02 12:55:20;;;;;;;1.42;0.85;;;10.00;99.90;;;;;;5072908;28;20041;-62
2022/04/02 12:58:05;;;;;;;2.67;0.93;;;;;;;;;;5069069;28;20039;-61
2022/04/02 13:00:41;;;;;;;1.33;0.90;;;9.90;99.90;;;;;;5069806;28;20048;-62
2022/04/02 13:03:07;;;;;;;2.53;1.00;;;;;;;;;;5068669;28;20171;-62
2022/04/02 13:05:44;;;;;;;1.60;0.90;;;;;;;;;;5071513;28;20033;-62
2022/04/02 13:08:25;;;;;;;1.85;1.10;;;;;;;;;;5070456;28;20072;-62
2022/04/02 13:10:58;;;;;;;3.97;1.25;;;10.30;99.90;;;;;;5070183;28;20055;-62
2022/04/02 13:13:42;;;;;;;2.45;1.13;;;10.50;99.90;;;;;;5069823;28;20162;-61
2022/04/02 13:16:11;;;;;;;2.20;0.98;;;10.20;99.90;;;;;;5069136;28;20123;-62
2022/04/02 13:21:34;;;;;;;1.42;0.80;;;10.70;99.90;;;;;;5069018;28;20527;-61
2022/04/02 13:24:00;;;;;;;3.85;0.90;;;;;;;;;;5072566;28;20119;-61
2022/04/02 13:26:31;;;;;;;1.50;1.02;;;;;;;;;;5070721;28;20590;-61
2022/04/02 13:29:13;;;;;;;2.28;0.90;;;;;;;;;;5071665;28;20518;-62
2022/04/02 13:31:49;;;;;;;3.85;1.02;;;;;;;;;;5072891;28;20053;-61
2022/04/02 13:34:19;;;;;;;5.15;1.08;;;;;;;;;;5072070;28;20388;-61
2022/04/02 13:36:54;;;;;;;2.60;0.80;;;;;;;;;;5072143;28;20123;-62
2022/04/02 13:39:20;;;;;;;2.95;0.88;;;;;;;;;;5068999;28;20033;-62
2022/04/02 13:41:52;;;;;;;2.47;1.17;;;12.00;99.90;;;;;;5071278;28;20054;-61
2022/04/02 13:44:23;;;;;;;2.30;0.95;;;;;;;;;;5071941;28;20040;-62
2022/04/02 13:46:53;;;;;;;2.67;1.08;;;;;;;;;;5071580;28;20036;-61
2022/04/02 13:49:25;;;;;;;3.38;1.30;;;;;;;;;;5071615;28;20041;-61
2022/04/02 13:51:59;;;;;;;2.15;0.85;;;12.90;99.90;;;;;;5070823;28;20116;-62
2022/04/02 13:54:34;;;;;;;1.20;0.88;;;;;;;;;;5071422;28;20042;-62
2022/04/02 13:57:00;;;;;;;2.92;1.02;;;;;;;;;;5072966;28;20036;-62
2022/04/02 13:59:30;;;;;;;1.90;1.20;;;;;;;;;;5071341;28;20549;-62
2022/04/02 14:01:57;;;;;;;1.60;0.90;;;11.60;99.90;;;;;;5073547;28;20095;-62
2022/04/02 14:04:34;;;;;;;4.47;1.20;;;11.20;99.90;;;;;;5071322;28;20541;-62
2022/04/02 14:07:02;;;;;;;5.05;1.20;;;;;;;;;;5072101;28;20076;-62
2022/04/02 14:09:29;;;;;;;2.38;0.90;;;;;;;;;;5070014;28;20052;-62
2022/04/02 14:11:56;;;;;;;4.07;1.08;;;;;;;;;;5074042;28;20067;-62
2022/04/02 14:14:25;;;;;;;2.67;1.00;;;10.60;99.90;;;;;;5070102;28;20053;-62
2022/04/02 14:17:05;;;;;;;3.75;1.05;;;;;;;;;;5069487;28;20072;-62
2022/04/02 14:19:57;;;;;;;4.18;0.80;;;10.70;99.10;;;;;;5070814;28;21633;-62
2022/04/02 14:22:24;;;;;;;6.28;1.30;;;10.70;99.60;;;;;;5070451;28;20039;-62
2022/04/02 14:25:11;;;;;;;1.75;0.90;;;10.60;99.50;;;;;;5068423;28;20048;-61
2022/04/02 14:27:49;;;;;;;3.03;0.82;;;;;;;;;;5070381;28;20119;-62
2022/04/02 14:30:33;;;;;;;2.90;0.93;;;10.00;98.60;;;;;;5069546;28;20449;-61
2022/04/02 14:33:17;;;;;;;2.47;1.13;;;10.20;99.60;;;;;;5071819;28;20129;-61
2022/04/02 14:36:04;;;;;;;2.97;1.20;;;;;;;;;;5070793;28;20040;-62
2022/04/02 14:39:04;;;;;;;2.47;1.08;;;10.80;98.20;;;;;;5070556;28;20041;-62
2022/04/02 14:41:59;;;;;;;4.32;1.50;;;10.10;98.10;;;;;;5068714;28;20052;-62
2022/04/02 14:44:54;;;;;;;4.30;1.42;;;;;;;;;;5069471;28;20037;-62
2022/04/02 14:47:30;;;;;;;3.03;1.20;;;9.30;99.90;;;;;;5068710;28;20048;-62
2022/04/02 14:49:56;;;;;;;2.85;1.38;;;;;;;;;;5070687;28;20052;-61
2022/04/02 14:52:41;;;;;;;2.72;1.25;;;;;;;;;;5069869;28;20396;-62
2022/04/02 14:55:30;;;;;;;1.98;1.40;;;;;;;;;;5068345;28;20685;-61
2022/04/02 14:58:13;;;;;;;2.05;1.10;;;9.90;99.50;;;;;;5047084;28;20113;-61